sensor_id;sensor_type;location;lat;lon;timestamp;P1;durP1;ratioP1;P2;durP2;ratioP2
57313;SDS011;53202;50.976;18.216;2023-06-22T00:07:05;11.70;;;10.30;;
57313;SDS011;53202;50.976;18.216;2023-06-22T00:16:48;18.30;;;10.70;;
57313;SDS011;53202;50.976;18.216;2023-06-22T00:26:34;17.50;;;15.10;;
57313;SDS011;53202;50.976;18.216;2023-06-22T00:36:17;16.60;;;11.60;;
57313;SDS011;53202;50.976;18.216;2023-06-22T00:46:01;25.20;;;18.50;;
57313;SDS011;53202;50.976;18.216;2023-06-22T00:55:48;21.30;;;18.40;;
57313;SDS011;53202;50.976;18.216;2023-06-22T01:05:35;18.90;;;16.90;;
57313;SDS011;53202;50.976;18.216;2023-06-22T01:15:44;26.20;;;18.60;;
57313;SDS011;53202;50.976;18.216;2023-06-22T01:25:38;18.30;;;15.70;;
57313;SDS011;53202;50.976;18.216;2023-06-22T01:35:36;15.60;;;14.00;;
57313;SDS011;53202;50.976;18.216;2023-06-22T01:45:20;26.40;;;23.30;;
57313;SDS011;53202;50.976;18.216;2023-06-22T01:55:04;24.60;;;20.40;;
57313;SDS011;53202;50.976;18.216;2023-06-22T02:05:00;24.50;;;22.20;;
57313;SDS011;53202;50.976;18.216;2023-06-22T02:14:51;48.50;;;24.90;;
57313;SDS011;53202;50.976;18.216;2023-06-22T02:24:35;41.70;;;24.00;;
57313;SDS011;53202;50.976;18.216;2023-06-22T02:34:21;34.30;;;28.80;;
57313;SDS011;53202;50.976;18.216;2023-06-22T02:44:10;28.60;;;23.40;;
57313;SDS011;53202;50.976;18.216;2023-06-22T02:53:54;39.30;;;30.40;;
57313;SDS011;53202;50.976;18.216;2023-06-22T03:03:42;16.20;;;14.50;;
57313;SDS011;53202;50.976;18.216;2023-06-22T03:13:33;35.90;;;20.80;;
57313;SDS011;53202;50.976;18.216;2023-06-22T03:23:17;34.90;;;29.30;;
57313;SDS011;53202;50.976;18.216;2023-06-22T03:33:02;30.70;;;27.40;;
57313;SDS011;53202;50.976;18.216;2023-06-22T03:42:46;31.40;;;27.20;;
57313;SDS011;53202;50.976;18.216;2023-06-22T03:52:31;23.50;;;21.10;;
57313;SDS011;53202;50.976;18.216;2023-06-22T04:02:15;33.50;;;30.20;;
57313;SDS011;53202;50.976;18.216;2023-06-22T04:11:59;37.30;;;33.40;;
57313;SDS011;53202;50.976;18.216;2023-06-22T04:21:43;41.40;;;31.30;;
57313;SDS011;53202;50.976;18.216;2023-06-22T04:31:31;38.30;;;25.90;;
57313;SDS011;53202;50.976;18.216;2023-06-22T04:41:30;32.30;;;29.00;;
57313;SDS011;53202;50.976;18.216;2023-06-22T04:51:22;60.80;;;31.80;;
57313;SDS011;53202;50.976;18.216;2023-06-22T05:01:07;31.30;;;26.80;;
57313;SDS011;53202;50.976;18.216;2023-06-22T05:10:54;20.20;;;18.10;;
57313;SDS011;53202;50.976;18.216;2023-06-22T05:20:38;51.90;;;22.70;;
57313;SDS011;53202;50.976;18.216;2023-06-22T05:23:04;26.40;;;22.60;;
57313;SDS011;53202;50.976;18.216;2023-06-22T05:32:49;16.40;;;11.70;;
57313;SDS011;53202;50.976;18.216;2023-06-22T05:42:38;14.90;;;13.00;;
57313;SDS011;53202;50.976;18.216;2023-06-22T05:52:21;14.70;;;11.70;;
57313;SDS011;53202;50.976;18.216;2023-06-22T05:54:47;17.20;;;15.10;;
57313;SDS011;53202;50.976;18.216;2023-06-22T06:04:31;12.80;;;11.40;;
57313;SDS011;53202;50.976;18.216;2023-06-22T06:14:14;8.20;;;7.40;;
57313;SDS011;53202;50.976;18.216;2023-06-22T06:23:59;9.60;;;8.80;;
57313;SDS011;53202;50.976;18.216;2023-06-22T06:33:48;7.20;;;6.60;;
57313;SDS011;53202;50.976;18.216;2023-06-22T06:43:32;6.20;;;5.70;;
57313;SDS011;53202;50.976;18.216;2023-06-22T06:53:16;4.10;;;3.70;;
57313;SDS011;53202;50.976;18.216;2023-06-22T07:03:01;6.20;;;5.80;;
57313;SDS011;53202;50.976;18.216;2023-06-22T07:12:44;12.60;;;6.00;;
57313;SDS011;53202;50.976;18.216;2023-06-22T07:22:36;19.20;;;6.90;;
57313;SDS011;53202;50.976;18.216;2023-06-22T07:32:29;9.10;;;8.20;;
57313;SDS011;53202;50.976;18.216;2023-06-22T07:42:12;6.70;;;6.10;;
57313;SDS011;53202;50.976;18.216;2023-06-22T07:52:01;13.60;;;8.30;;
57313;SDS011;53202;50.976;18.216;2023-06-22T08:01:46;2.40;;;2.30;;
57313;SDS011;53202;50.976;18.216;2023-06-22T08:11:32;8.40;;;7.60;;
57313;SDS011;53202;50.976;18.216;2023-06-22T08:16:25;14.00;;;10.20;;
57313;SDS011;53202;50.976;18.216;2023-06-22T08:26:08;8.60;;;7.90;;
57313;SDS011;53202;50.976;18.216;2023-06-22T08:35:54;18.30;;;5.60;;
57313;SDS011;53202;50.976;18.216;2023-06-22T08:45:39;8.30;;;7.50;;
57313;SDS011;53202;50.976;18.216;2023-06-22T08:55:22;7.70;;;7.10;;
57313;SDS011;53202;50.976;18.216;2023-06-22T09:05:10;5.40;;;5.00;;
57313;SDS011;53202;50.976;18.216;2023-06-22T09:14:56;7.20;;;6.50;;
57313;SDS011;53202;50.976;18.216;2023-06-22T09:24:40;4.00;;;3.70;;
57313;SDS011;53202;50.976;18.216;2023-06-22T09:34:26;6.50;;;5.80;;
57313;SDS011;53202;50.976;18.216;2023-06-22T09:44:10;6.10;;;5.60;;
57313;SDS011;53202;50.976;18.216;2023-06-22T09:53:53;4.50;;;4.10;;
57313;SDS011;53202;50.976;18.216;2023-06-22T10:03:40;5.60;;;5.10;;
57313;SDS011;53202;50.976;18.216;2023-06-22T10:13:29;5.40;;;4.90;;
57313;SDS011;53202;50.976;18.216;2023-06-22T10:23:13;5.70;;;5.10;;
57313;SDS011;53202;50.976;18.216;2023-06-22T10:32:56;7.40;;;3.00;;
57313;SDS011;53202;50.976;18.216;2023-06-22T10:42:40;3.70;;;3.40;;
57313;SDS011;53202;50.976;18.216;2023-06-22T10:52:25;5.10;;;4.60;;
57313;SDS011;53202;50.976;18.216;2023-06-22T11:02:09;4.80;;;4.20;;
57313;SDS011;53202;50.976;18.216;2023-06-22T11:11:55;4.00;;;3.60;;
57313;SDS011;53202;50.976;18.216;2023-06-22T11:21:39;5.30;;;4.30;;
57313;SDS011;53202;50.976;18.216;2023-06-22T11:31:24;3.30;;;3.00;;
57313;SDS011;53202;50.976;18.216;2023-06-22T11:41:08;3.50;;;3.20;;
57313;SDS011;53202;50.976;18.216;2023-06-22T11:50:53;3.10;;;2.90;;
57313;SDS011;53202;50.976;18.216;2023-06-22T12:00:38;3.20;;;2.70;;
57313;SDS011;53202;50.976;18.216;2023-06-22T12:10:22;2.50;;;2.30;;
57313;SDS011;53202;50.976;18.216;2023-06-22T12:20:06;2.40;;;2.00;;
57313;SDS011;53202;50.976;18.216;2023-06-22T12:29:52;6.20;;;5.60;;
57313;SDS011;53202;50.976;18.216;2023-06-22T12:39:39;3.50;;;3.30;;
57313;SDS011;53202;50.976;18.216;2023-06-22T12:49:28;3.30;;;3.10;;
57313;SDS011;53202;50.976;18.216;2023-06-22T12:59:12;4.20;;;3.80;;
57313;SDS011;53202;50.976;18.216;2023-06-22T13:08:56;5.40;;;5.00;;
57313;SDS011;53202;50.976;18.216;2023-06-22T13:18:40;5.20;;;4.80;;
57313;SDS011;53202;50.976;18.216;2023-06-22T13:28:25;5.90;;;3.50;;
57313;SDS011;53202;50.976;18.216;2023-06-22T13:44:28;4.80;;;4.40;;
57313;SDS011;53202;50.976;18.216;2023-06-22T13:54:13;4.80;;;4.40;;
57313;SDS011;53202;50.976;18.216;2023-06-22T14:04:00;4.60;;;4.10;;
57313;SDS011;53202;50.976;18.216;2023-06-22T14:13:45;4.20;;;4.00;;
57313;SDS011;53202;50.976;18.216;2023-06-22T14:23:28;5.30;;;4.80;;
57313;SDS011;53202;50.976;18.216;2023-06-22T14:33:12;5.40;;;4.50;;
57313;SDS011;53202;50.976;18.216;2023-06-22T14:42:55;4.80;;;4.40;;
57313;SDS011;53202;50.976;18.216;2023-06-22T14:52:40;2.70;;;2.50;;
57313;SDS011;53202;50.976;18.216;2023-06-22T15:02:25;6.40;;;4.80;;
57313;SDS011;53202;50.976;18.216;2023-06-22T15:12:10;5.60;;;5.20;;
57313;SDS011;53202;50.976;18.216;2023-06-22T15:21:55;3.50;;;3.20;;
57313;SDS011;53202;50.976;18.216;2023-06-22T15:31:39;3.80;;;3.50;;
57313;SDS011;53202;50.976;18.216;2023-06-22T15:41:23;7.40;;;6.20;;
57313;SDS011;53202;50.976;18.216;2023-06-22T15:51:09;4.50;;;4.10;;
57313;SDS011;53202;50.976;18.216;2023-06-22T16:00:53;4.20;;;3.60;;
57313;SDS011;53202;50.976;18.216;2023-06-22T16:10:40;4.00;;;3.70;;
57313;SDS011;53202;50.976;18.216;2023-06-22T16:20:23;2.40;;;2.30;;
57313;SDS011;53202;50.976;18.216;2023-06-22T16:30:07;14.80;;;6.90;;
57313;SDS011;53202;50.976;18.216;2023-06-22T16:39:51;7.90;;;4.00;;
57313;SDS011;53202;50.976;18.216;2023-06-22T16:56:55;4.90;;;4.40;;
57313;SDS011;53202;50.976;18.216;2023-06-22T17:06:46;6.60;;;4.90;;
57313;SDS011;53202;50.976;18.216;2023-06-22T17:16:34;2.40;;;2.20;;
57313;SDS011;53202;50.976;18.216;2023-06-22T17:26:25;4.30;;;4.00;;
57313;SDS011;53202;50.976;18.216;2023-06-22T17:36:41;7.60;;;4.70;;
57313;SDS011;53202;50.976;18.216;2023-06-22T17:46:37;3.30;;;2.80;;
57313;SDS011;53202;50.976;18.216;2023-06-22T17:56:26;2.80;;;2.20;;
57313;SDS011;53202;50.976;18.216;2023-06-22T18:06:32;4.80;;;4.30;;
57313;SDS011;53202;50.976;18.216;2023-06-22T18:16:21;2.80;;;2.60;;
57313;SDS011;53202;50.976;18.216;2023-06-22T18:26:06;4.40;;;3.30;;
57313;SDS011;53202;50.976;18.216;2023-06-22T18:35:54;5.50;;;2.70;;
57313;SDS011;53202;50.976;18.216;2023-06-22T18:45:45;9.10;;;3.10;;
57313;SDS011;53202;50.976;18.216;2023-06-22T18:55:35;9.30;;;3.20;;
57313;SDS011;53202;50.976;18.216;2023-06-22T19:16:00;4.50;;;3.90;;
57313;SDS011;53202;50.976;18.216;2023-06-22T19:26:13;9.90;;;5.80;;
57313;SDS011;53202;50.976;18.216;2023-06-22T19:36:01;10.70;;;4.60;;
57313;SDS011;53202;50.976;18.216;2023-06-22T19:45:52;9.30;;;5.00;;
57313;SDS011;53202;50.976;18.216;2023-06-22T19:55:40;3.40;;;2.10;;
57313;SDS011;53202;50.976;18.216;2023-06-22T20:05:27;8.40;;;5.20;;
57313;SDS011;53202;50.976;18.216;2023-06-22T20:15:15;55.50;;;9.50;;
57313;SDS011;53202;50.976;18.216;2023-06-22T20:25:22;7.30;;;2.70;;
57313;SDS011;53202;50.976;18.216;2023-06-22T20:35:22;11.30;;;4.90;;
57313;SDS011;53202;50.976;18.216;2023-06-22T20:45:11;5.40;;;3.60;;
57313;SDS011;53202;50.976;18.216;2023-06-22T20:54:58;7.10;;;4.30;;
57313;SDS011;53202;50.976;18.216;2023-06-22T21:04:41;17.20;;;4.70;;
57313;SDS011;53202;50.976;18.216;2023-06-22T21:14:25;4.80;;;3.90;;
57313;SDS011;53202;50.976;18.216;2023-06-22T21:24:09;3.10;;;2.10;;
57313;SDS011;53202;50.976;18.216;2023-06-22T21:33:53;11.40;;;3.60;;
57313;SDS011;53202;50.976;18.216;2023-06-22T21:43:38;6.00;;;4.10;;
57313;SDS011;53202;50.976;18.216;2023-06-22T21:53:22;5.10;;;3.80;;
57313;SDS011;53202;50.976;18.216;2023-06-22T22:09:37;4.30;;;3.90;;
57313;SDS011;53202;50.976;18.216;2023-06-22T22:19:21;19.40;;;6.60;;
57313;SDS011;53202;50.976;18.216;2023-06-22T22:29:05;5.00;;;4.20;;
57313;SDS011;53202;50.976;18.216;2023-06-22T22:38:56;15.00;;;5.10;;
57313;SDS011;53202;50.976;18.216;2023-06-22T22:48:39;5.00;;;4.00;;
57313;SDS011;53202;50.976;18.216;2023-06-22T22:58:27;4.10;;;3.60;;
57313;SDS011;53202;50.976;18.216;2023-06-22T23:08:11;6.40;;;4.50;;
57313;SDS011;53202;50.976;18.216;2023-06-22T23:17:58;11.10;;;4.70;;
57313;SDS011;53202;50.976;18.216;2023-06-22T23:27:45;11.60;;;6.00;;
57313;SDS011;53202;50.976;18.216;2023-06-22T23:37:36;5.70;;;5.10;;
57313;SDS011;53202;50.976;18.216;2023-06-22T23:47:27;5.40;;;4.90;;
57313;SDS011;53202;50.976;18.216;2023-06-22T23:57:12;17.00;;;4.80;;
